Time;durP1;ratioP1;P1;durP2;ratioP2;P2;SDS_P1;SDS_P2;PMS_P1;PMS_P2;Temp;Humidity;BMP_temperature;BMP_pressure;BME280_temperature;BME280_humidity;BME280_pressure;Samples;Min_cycle;Max_cycle;Signal;HPM_P1;HPM_P2
2021/12/11 00:00:15;;;;;;;16.00;14.40;;;;;;;6.13;60.14;96426.47;8333723;28;20236;-67
2021/12/11 00:04:21;;;;;;;15.43;13.97;;;;;;;6.37;59.40;96423.53;8282275;28;20425;-67
2021/12/11 00:08:28;;;;;;;15.20;13.80;;;;;;;6.38;59.36;96438.06;8282082;28;20540;-67
2021/12/11 00:12:35;;;;;;;14.47;13.17;;;;;;;6.36;59.41;96437.28;8273867;28;20241;-68
2021/12/11 00:16:40;;;;;;;14.20;13.00;;;;;;;6.21;59.56;96444.88;8281801;28;20233;-67
2021/12/11 00:20:48;;;;;;;13.00;11.90;;;;;;;6.21;60.15;96467.19;8281750;28;20260;-67
2021/12/11 00:24:52;;;;;;;13.10;12.00;;;;;;;6.25;59.95;96471.28;8282063;28;20436;-67
2021/12/11 00:28:55;;;;;;;12.13;11.03;;;;;;;6.37;59.66;96477.53;8281662;28;20229;-67
2021/12/11 00:33:01;;;;;;;11.70;10.70;;;;;;;6.40;59.38;96483.34;8281520;28;20564;-68
2021/12/11 00:37:07;;;;;;;10.40;9.57;;;;;;;6.43;59.24;96482.34;8282111;28;20244;-68
2021/12/11 00:41:12;;;;;;;10.30;9.40;;;;;;;6.24;59.83;96500.44;8287563;28;20241;-68
2021/12/11 00:45:17;;;;;;;9.83;8.93;;;;;;;6.38;59.34;96500.59;8287853;28;20233;-67
2021/12/11 00:49:22;;;;;;;9.17;8.40;;;;;;;6.32;59.49;96508.63;8287355;28;20233;-68
2021/12/11 00:53:28;;;;;;;9.57;8.77;;;;;;;6.22;59.71;96518.50;8287436;28;20241;-68
2021/12/11 00:57:31;;;;;;;8.87;8.17;;;;;;;6.30;59.74;96528.41;8287110;28;20480;-69
2021/12/11 01:01:36;;;;;;;9.20;8.47;;;;;;;6.37;59.79;96536.66;8318906;28;20531;-68
2021/12/11 01:05:44;;;;;;;9.00;8.30;;;;;;;6.28;59.76;96537.13;8319647;28;20232;-68
2021/12/11 01:09:51;;;;;;;8.33;7.63;;;;;;;6.30;59.80;96543.84;8319538;28;20243;-68
2021/12/11 01:14:10;;;;;;;8.23;7.60;;;;;;;6.43;59.49;96549.19;8319696;28;20239;-68
2021/12/11 01:18:23;;;;;;;8.43;7.73;;;;;;;6.29;59.72;96557.63;8319457;28;20240;-67
2021/12/11 01:22:35;;;;;;;8.17;7.50;;;;;;;6.48;59.31;96567.81;8309982;28;20407;-68
2021/12/11 01:26:43;;;;;;;9.40;8.60;;;;;;;6.39;59.68;96579.38;8318861;28;20229;-68
2021/12/11 01:30:46;;;;;;;8.70;8.00;;;;;;;6.39;59.87;96584.53;8319245;28;20419;-69
2021/12/11 01:34:50;;;;;;;8.90;8.10;;;;;;;6.51;59.48;96587.41;8318350;28;20233;-68
2021/12/11 01:38:57;;;;;;;8.93;8.23;;;;;;;6.35;59.94;96608.72;8318708;28;20431;-68
2021/12/11 01:43:00;;;;;;;9.53;8.73;;;;;;;6.50;59.50;96612.28;8318938;28;20236;-68
2021/12/11 01:47:06;;;;;;;10.07;9.27;;;;;;;6.26;60.08;96624.59;8320429;28;20429;-68
2021/12/11 01:51:13;;;;;;;10.07;9.27;;;;;;;6.48;59.76;96631.28;8319184;28;20237;-68
2021/12/11 01:55:24;;;;;;;10.30;9.40;;;;;;;6.38;59.68;96642.03;8317934;28;20239;-68
2021/12/11 01:59:31;;;;;;;10.87;9.97;;;;;;;6.43;59.88;96650.31;8317802;28;20244;-68
2021/12/11 02:03:34;;;;;;;9.93;9.10;;;;;;;6.14;60.25;96656.06;8317367;28;20228;-69
2021/12/11 02:07:41;;;;;;;9.50;8.70;;;;;;;6.29;60.27;96664.78;8317586;28;20425;-68
2021/12/11 02:11:48;;;;;;;10.80;9.90;;;;;;;6.30;60.13;96674.97;8317460;28;20264;-69
2021/12/11 02:15:53;;;;;;;10.27;9.47;;;;;;;6.36;59.98;96674.69;8317545;28;20225;-69
2021/12/11 02:19:58;;;;;;;10.20;9.37;;;;;;;6.45;59.46;96675.97;8317545;28;20239;-68
2021/12/11 02:24:05;;;;;;;10.87;9.97;;;;;;;6.54;59.70;96693.53;8323300;28;20524;-68
2021/12/11 02:28:13;;;;;;;12.47;11.37;;;;;;;6.49;59.85;96697.22;8317602;28;20240;-68
2021/12/11 02:32:22;;;;;;;13.53;12.13;;;;;;;6.50;59.36;96698.91;8317240;28;20240;-68
2021/12/11 02:36:30;;;;;;;14.83;13.33;;;;;;;6.59;59.11;96701.88;8316832;28;20527;-69
2021/12/11 02:40:39;;;;;;;15.57;13.63;;;;;;;6.58;59.05;96717.38;8316135;28;20557;-69
2021/12/11 02:44:47;;;;;;;18.30;14.93;;;;;;;6.64;59.13;96724.78;8316664;28;20237;-69
2021/12/11 02:48:53;;;;;;;20.77;15.57;;;;;;;6.51;58.91;96723.72;8316969;28;20229;-69
2021/12/11 02:52:59;;;;;;;20.83;16.57;;;;;;;6.45;59.22;96735.97;8316601;28;20240;-69
2021/12/11 02:57:09;;;;;;;18.00;14.97;;;;;;;6.46;59.38;96729.91;8316553;28;20236;-69
2021/12/11 03:01:21;;;;;;;18.43;15.47;;;;;;;6.36;59.48;96741.56;8315504;28;20441;-69
2021/12/11 03:05:34;;;;;;;17.23;15.10;;;;;;;6.35;59.86;96757.03;8316345;28;20243;-69
2021/12/11 03:09:40;;;;;;;16.90;15.17;;;;;;;6.41;59.63;96767.03;8283237;28;20240;-69
2021/12/11 03:13:50;;;;;;;16.07;14.47;;;;;;;6.51;59.52;96772.56;8283019;28;20237;-69
2021/12/11 03:17:53;;;;;;;15.77;14.27;;;;;;;6.57;58.96;96769.75;8282644;28;20394;-69
2021/12/11 03:21:57;;;;;;;16.27;14.70;;;;;;;6.25;59.75;96774.63;8282295;28;20240;-69
2021/12/11 03:26:01;;;;;;;16.03;14.53;;;;;;;6.04;60.17;96792.69;8282720;28;20586;-70
2021/12/11 03:30:08;;;;;;;15.70;14.20;;;;;;;6.21;59.53;96798.81;8282546;28;20229;-69
2021/12/11 03:34:13;;;;;;;15.50;14.20;;;;;;;6.24;59.83;96807.25;8282183;28;20426;-69
2021/12/11 03:38:20;;;;;;;17.33;15.77;;;;;;;6.32;59.87;96811.19;8282299;28;20237;-69
2021/12/11 03:42:26;;;;;;;17.00;15.47;;;;;;;6.34;59.48;96824.78;8282330;28;20245;-69
2021/12/11 03:46:30;;;;;;;17.07;15.50;;;;;;;6.50;59.38;96832.66;8281609;28;20229;-70
2021/12/11 03:50:34;;;;;;;17.83;16.23;;;;;;;6.34;59.47;96840.22;8281933;28;20233;-70
2021/12/11 03:54:41;;;;;;;18.10;16.50;;;;;;;6.25;59.83;96847.44;8281984;28;20245;-69
2021/12/11 03:58:49;;;;;;;18.70;17.00;;;;;;;6.18;60.06;96860.66;8281750;28;20244;-70
2021/12/11 04:03:02;;;;;;;18.07;16.47;;;;;;;6.35;59.14;96863.31;8281698;28;20237;-69
2021/12/11 04:07:07;;;;;;;20.47;18.57;;;;;;;6.00;59.80;96873.41;8281619;28;20230;-70
2021/12/11 04:11:12;;;;;;;20.90;19.00;;;;;;;6.14;60.39;96884.84;8282731;28;20233;-69
2021/12/11 04:15:16;;;;;;;21.33;19.43;;;;;;;6.22;60.06;96893.84;8288455;28;20425;-69
2021/12/11 04:19:21;;;;;;;21.43;19.53;;;;;;;6.20;59.85;96894.84;8288557;28;20536;-69
2021/12/11 04:23:25;;;;;;;22.80;20.63;;;;;;;6.07;59.87;96899.66;8288458;28;20540;-69
2021/12/11 04:27:28;;;;;;;22.43;20.33;;;;;;;6.38;59.80;96909.47;8296480;28;20256;-69
2021/12/11 04:31:32;;;;;;;23.30;21.07;;;;;;;6.30;59.91;96918.41;8296150;28;20235;-69
2021/12/11 04:35:37;;;;;;;22.43;20.33;;;;;;;6.30;59.80;96929.50;8320537;28;20244;-69
2021/12/11 04:39:42;;;;;;;23.73;21.53;;;;;;;6.35;59.67;96934.47;8320418;28;20259;-70
2021/12/11 04:43:47;;;;;;;22.40;20.23;;;;;;;6.35;59.82;96944.75;8320584;28;20263;-69
2021/12/11 04:47:55;;;;;;;22.73;20.60;;;;;;;6.29;59.29;96951.00;8320433;28;20406;-69
2021/12/11 04:52:03;;;;;;;23.17;21.00;;;;;;;6.49;59.58;96952.69;8319806;28;20244;-70
2021/12/11 04:56:33;;;;;;;23.20;21.00;;;;;;;6.47;59.25;96957.06;8319879;28;20547;-70
2021/12/11 05:00:48;;;;;;;22.73;20.53;;;;;;;6.46;59.05;96963.97;8319195;28;20429;-70
2021/12/11 05:05:05;;;;;;;23.40;21.20;;;;;;;6.43;59.32;96978.69;8319558;28;20237;-70
2021/12/11 05:13:32;;;;;;;23.70;21.40;;;;;;;6.38;59.24;97001.22;8318919;28;20415;-70
2021/12/11 05:17:36;;;;;;;23.50;21.30;;;;;;;6.21;59.84;97004.50;8319133;28;20233;-70
2021/12/11 05:21:39;;;;;;;22.50;20.40;;;;;;;6.30;59.82;97010.97;8319227;28;20562;-69
2021/12/11 05:25:43;;;;;;;22.90;20.70;;;;;;;6.31;59.82;97012.66;8318104;28;20447;-69
2021/12/11 05:29:47;;;;;;;23.13;20.90;;;;;;;6.32;59.79;97022.03;8318997;28;20539;-69
2021/12/11 05:33:50;;;;;;;23.23;21.03;;;;;;;6.22;60.06;97031.88;8318852;28;20229;-69
2021/12/11 05:37:53;;;;;;;24.07;21.73;;;;;;;6.34;59.45;97039.09;8350410;28;20400;-69
2021/12/11 05:41:58;;;;;;;24.17;21.73;;;;;;;6.25;59.60;97037.72;8351302;28;20247;-69
2021/12/11 05:46:01;;;;;;;23.53;21.23;;;;;;;6.28;60.24;97043.63;8351300;28;20228;-69
2021/12/11 05:50:05;;;;;;;25.33;22.90;;;;;;;6.28;59.58;97054.75;8350394;28;20263;-69
2021/12/11 05:54:12;;;;;;;24.33;21.63;;;;;;;6.20;59.62;97056.81;8318059;28;20547;-69
2021/12/11 05:58:27;;;;;;;23.47;21.07;;;;;;;6.31;60.11;97075.19;8317541;28;20267;-69
2021/12/11 06:02:30;;;;;;;25.00;22.40;;;;;;;6.11;59.92;97085.47;8316334;28;20232;-70
2021/12/11 06:06:34;;;;;;;25.77;23.17;;;;;;;6.19;60.35;97096.28;8315970;28;20221;-69
2021/12/11 06:10:40;;;;;;;26.40;23.30;;;;;;;6.37;59.78;97112.69;8316232;28;20224;-69
2021/12/11 06:14:47;;;;;;;28.23;25.27;;;;;;;6.20;60.28;97111.63;8315653;28;20515;-70
2021/12/11 06:18:50;;;;;;;27.40;24.50;;;;;;;6.23;60.11;97126.13;8315855;28;20279;-70
2021/12/11 06:22:54;;;;;;;25.93;23.27;;;;;;;6.36;59.92;97126.44;8314998;28;20237;-69
2021/12/11 06:26:58;;;;;;;26.57;23.83;;;;;;;6.23;60.43;97134.66;8315908;28;20240;-69
2021/12/11 06:31:03;;;;;;;26.40;23.43;;;;;;;6.32;59.98;97145.47;8315941;28;20236;-70
2021/12/11 06:35:13;;;;;;;24.80;22.40;;;;;;;6.20;60.23;97163.03;8316068;28;20243;-69
2021/12/11 06:39:18;;;;;;;24.17;21.67;;;;;;;6.33;60.25;97167.72;8315706;28;20233;-69
2021/12/11 06:43:21;;;;;;;22.03;19.73;;;;;;;6.25;59.72;97173.16;8313026;28;20236;-69
2021/12/11 06:47:25;;;;;;;20.07;18.07;;;;;;;6.25;60.18;97188.59;8315753;28;20236;-69
2021/12/11 06:51:29;;;;;;;18.57;16.67;;;;;;;6.16;60.10;97199.25;8315006;28;20292;-69
2021/12/11 06:55:32;;;;;;;17.97;16.27;;;;;;;6.31;60.15;97210.66;8315694;28;20229;-70
2021/12/11 06:59:35;;;;;;;19.33;17.30;;;;;;;6.36;60.35;97221.59;8315123;28;20228;-69
2021/12/11 07:03:41;;;;;;;18.13;16.43;;;;;;;6.37;59.65;97228.41;8315197;28;20236;-70
2021/12/11 07:07:46;;;;;;;17.63;15.83;;;;;;;6.11;60.19;97248.28;8315691;28;20240;-69
2021/12/11 07:11:50;;;;;;;17.73;15.93;;;;;;;6.05;60.05;97259.63;8315244;28;20236;-70
2021/12/11 07:15:56;;;;;;;18.60;16.70;;;;;;;6.10;60.69;97274.84;8314492;28;20232;-69
2021/12/11 07:20:00;;;;;;;20.13;18.03;;;;;;;6.28;60.21;97275.06;8312517;28;20225;-70
2021/12/11 07:24:06;;;;;;;19.67;17.77;;;;;;;6.09;60.68;97280.88;8314496;28;20228;-70
2021/12/11 07:28:10;;;;;;;19.93;17.83;;;;;;;5.99;60.73;97295.81;8316211;28;20228;-70
2021/12/11 07:32:13;;;;;;;19.87;17.77;;;;;;;6.05;60.93;97300.75;8314184;28;20287;-70
2021/12/11 07:36:18;;;;;;;18.60;16.80;;;;;;;6.31;60.39;97313.53;8313278;28;20239;-70
2021/12/11 07:40:29;;;;;;;19.50;17.40;;;;;;;6.26;60.03;97324.81;8329360;28;20418;-69
2021/12/11 07:44:32;;;;;;;18.93;17.03;;;;;;;6.34;59.85;97334.81;8307193;28;20216;-70
2021/12/11 07:48:35;;;;;;;18.73;16.90;;;;;;;6.39;60.07;97343.19;8297563;28;20527;-70
2021/12/11 07:52:40;;;;;;;18.63;16.63;;;;;;;6.49;59.50;97353.97;8297859;28;20543;-69
2021/12/11 07:56:43;;;;;;;19.03;17.13;;;;;;;6.46;59.61;97360.06;8297707;28;20232;-70
2021/12/11 08:00:47;;;;;;;18.60;16.80;;;;;;;6.48;59.59;97366.91;8295041;28;20425;-70
2021/12/11 08:04:50;;;;;;;20.63;18.47;;;;;;;6.29;59.66;97383.00;8297615;28;20235;-70
2021/12/11 08:08:55;;;;;;;19.17;17.17;;;;;;;6.44;59.84;97389.31;8297468;28;20527;-70
2021/12/11 08:12:59;;;;;;;18.97;17.03;;;;;;;6.53;59.69;97396.72;8299041;28;20291;-70
2021/12/11 08:17:05;;;;;;;18.77;16.87;;;;;;;6.31;60.13;97408.69;8314552;28;20429;-70
2021/12/11 08:21:08;;;;;;;18.67;16.77;;;;;;;6.26;60.17;97414.81;8305994;28;20234;-70
2021/12/11 08:25:13;;;;;;;18.90;17.00;;;;;;;6.21;60.46;97427.00;8282052;28;20241;-69
2021/12/11 08:29:17;;;;;;;18.53;16.57;;;;;;;6.00;60.93;97431.16;8282176;28;20252;-70
2021/12/11 08:33:21;;;;;;;18.23;16.37;;;;;;;6.21;60.60;97437.28;8281876;28;20525;-70
2021/12/11 08:37:25;;;;;;;17.93;16.13;;;;;;;6.26;60.41;97449.97;8281809;28;20238;-70
2021/12/11 08:41:30;;;;;;;17.87;16.07;;;;;;;6.43;59.66;97457.09;8313511;28;20228;-70
2021/12/11 08:45:45;;;;;;;19.63;17.13;;;;;;;6.42;59.69;97461.41;8313878;28;20422;-70
2021/12/11 08:49:50;;;;;;;18.50;16.33;;;;;;;6.55;60.00;97481.53;8313760;28;20345;-70
2021/12/11 08:53:53;;;;;;;19.17;15.87;;;;;;;6.49;59.32;97486.91;8310084;28;20229;-70
2021/12/11 08:57:59;;;;;;;17.87;16.10;;;;;;;6.15;60.20;97495.78;8293931;28;20240;-70
2021/12/11 09:02:07;;;;;;;18.97;16.97;;;;;;;6.25;60.32;97504.88;8317268;28;20561;-70
2021/12/11 09:06:14;;;;;;;18.43;16.47;;;;;;;6.59;59.81;97507.09;8318605;28;20544;-70
2021/12/11 09:10:22;;;;;;;17.60;15.70;;;;;;;6.67;59.38;97516.28;8308663;28;20236;-70
2021/12/11 09:14:31;;;;;;;21.00;18.13;;;;;;;6.64;59.20;97525.81;8318811;28;20240;-70
2021/12/11 09:18:38;;;;;;;18.53;16.40;;;;;;;6.61;59.87;97536.19;8319044;28;20229;-70
2021/12/11 09:22:45;;;;;;;19.10;17.20;;;;;;;6.77;58.87;97536.47;8318984;28;20247;-70
2021/12/11 09:26:52;;;;;;;19.43;17.13;;;;;;;6.60;59.60;97554.25;8318538;28;20244;-70
2021/12/11 09:31:05;;;;;;;21.23;17.30;;;;;;;7.00;58.75;97557.97;8318592;28;20236;-70
2021/12/11 09:35:13;;;;;;;20.20;18.03;;;;;;;6.90;59.06;97578.06;8318503;28;20247;-70
2021/12/11 09:39:20;;;;;;;22.93;20.10;;;;;;;6.76;59.20;97575.13;8317558;28;20229;-70
2021/12/11 09:43:31;;;;;;;20.73;17.07;;;;;;;6.89;58.94;97583.25;8317375;28;20240;-70
2021/12/11 09:47:38;;;;;;;20.17;16.17;;;;;;;6.75;59.15;97586.34;8316899;28;20550;-70
2021/12/11 09:51:45;;;;;;;20.07;16.97;;;;;;;6.63;59.27;97590.19;8314978;28;20229;-70
2021/12/11 09:55:49;;;;;;;18.93;17.00;;;;;;;6.50;59.65;97594.91;8317560;28;20535;-70
2021/12/11 09:59:56;;;;;;;19.67;17.57;;;;;;;6.87;59.11;97606.47;8317191;28;20243;-70
2021/12/11 10:04:05;;;;;;;20.50;18.43;;;;;;;6.88;59.32;97600.44;8317424;28;20240;-70
2021/12/11 10:08:26;;;;;;;19.93;17.93;;;;;;;6.57;60.60;97604.09;8317462;28;20437;-70
2021/12/11 10:12:32;;;;;;;21.93;19.63;;;;;;;6.32;61.28;97611.78;8316567;28;20553;-70
2021/12/11 10:16:39;;;;;;;20.23;18.10;;;;;;;6.57;60.11;97609.25;8317096;28;20341;-70
2021/12/11 10:20:45;;;;;;;23.60;20.40;;;;;;;6.70;60.18;97622.53;8316977;28;20247;-70
2021/12/11 10:24:50;;;;;;;20.23;18.00;;;;;;;6.48;60.43;97624.16;8316953;28;20248;-70
2021/12/11 10:28:58;;;;;;;20.63;17.57;;;;;;;6.50;60.13;97633.47;8316867;28;20225;-70
2021/12/11 10:33:03;;;;;;;19.90;17.80;;;;;;;6.48;60.36;97637.84;8316828;28;20231;-70
2021/12/11 10:37:09;;;;;;;19.63;17.57;;;;;;;6.28;60.58;97648.75;8316471;28;20237;-69
2021/12/11 10:41:13;;;;;;;18.57;16.67;;;;;;;6.35;60.83;97655.41;8316756;28;20561;-70
2021/12/11 10:45:17;;;;;;;18.50;16.37;;;;;;;6.39;60.29;97656.16;8316854;28;20243;-69
2021/12/11 10:49:21;;;;;;;19.70;16.10;;;;;;;6.45;60.11;97661.09;8316399;28;20232;-69
2021/12/11 10:53:26;;;;;;;17.23;15.53;;;;;;;6.05;60.71;97673.50;8316878;28;20233;-69
2021/12/11 10:57:31;;;;;;;17.83;15.17;;;;;;;6.51;60.51;97671.19;8315618;28;20248;-69
2021/12/11 11:01:39;;;;;;;17.30;15.60;;;;;;;6.76;59.73;97672.94;8315675;28;20233;-70
2021/12/11 11:05:49;;;;;;;18.37;15.37;;;;;;;6.71;59.52;97679.97;8315519;28;20451;-69
2021/12/11 11:09:53;;;;;;;17.73;15.70;;;;;;;6.70;59.44;97691.16;8315448;28;20233;-69
2021/12/11 11:13:57;;;;;;;16.87;15.07;;;;;;;6.76;59.34;97688.38;8314624;28;20244;-69
2021/12/11 11:18:00;;;;;;;16.80;14.40;;;;;;;6.66;59.72;97700.69;8314701;28;20232;-69
2021/12/11 11:22:07;;;;;;;17.23;15.33;;;;;;;6.87;58.97;97713.75;8313811;28;20241;-69
2021/12/11 11:26:13;;;;;;;15.30;13.67;;;;;;;6.70;59.08;97709.16;8312865;28;20239;-69
2021/12/11 11:30:20;;;;;;;15.90;13.83;;;;;;;6.68;58.77;97727.22;8314681;28;20279;-69
2021/12/11 11:34:26;;;;;;;18.40;15.17;;;;;;;6.94;58.83;97739.25;8314512;28;20240;-69
2021/12/11 11:38:33;;;;;;;17.97;13.50;;;;;;;6.68;58.27;97742.66;8311668;28;20524;-69
2021/12/11 11:42:37;;;;;;;16.07;13.23;;;;;;;6.89;58.76;97754.00;8313989;28;20544;-69
2021/12/11 11:46:42;;;;;;;16.17;14.17;;;;;;;6.89;58.33;97756.56;8313677;28;20233;-69
2021/12/11 11:50:47;;;;;;;14.73;11.67;;;;;;;6.74;57.66;97781.09;8313954;28;20225;-69
2021/12/11 11:54:54;;;;;;;19.57;12.33;;;;;;;6.95;57.31;97774.41;8314059;28;20406;-69
2021/12/11 11:58:57;;;;;;;14.37;12.70;;;;;;;6.95;57.78;97778.69;8313763;28;20424;-70
2021/12/11 12:03:01;;;;;;;18.07;12.83;;;;;;;6.75;57.96;97784.50;8311398;28;20514;-70
2021/12/11 12:07:05;;;;;;;14.73;12.80;;;;;;;6.85;57.41;97784.16;8313911;28;20236;-70
2021/12/11 12:11:11;;;;;;;15.07;12.67;;;;;;;6.96;58.00;97796.69;8314076;28;20239;-69
2021/12/11 12:15:17;;;;;;;18.70;14.20;;;;;;;7.05;57.79;97808.41;8314964;28;20243;-70
2021/12/11 12:19:21;;;;;;;14.30;12.73;;;;;;;7.15;57.93;97811.53;8314825;28;20232;-70
2021/12/11 12:23:31;;;;;;;16.20;14.03;;;;;;;7.01;58.17;97827.44;8314695;28;20225;-70
2021/12/11 12:27:38;;;;;;;15.60;13.93;;;;;;;6.89;59.09;97833.81;8314260;28;20236;-70
2021/12/11 12:31:44;;;;;;;18.97;14.43;;;;;;;6.98;58.77;97840.41;8314658;28;20255;-70
2021/12/11 12:35:48;;;;;;;17.43;12.67;;;;;;;6.86;58.00;97859.66;8320584;28;20256;-70
2021/12/11 12:39:57;;;;;;;17.53;12.93;;;;;;;6.85;58.28;97865.69;8320187;28;20574;-70
2021/12/11 12:44:17;;;;;;;16.57;11.27;;;;;;;6.48;58.08;97866.81;8320011;28;20240;-70
2021/12/11 12:48:36;;;;;;;15.03;12.73;;;;;;;6.99;57.92;97875.56;8319629;28;20236;-70
2021/12/11 12:52:42;;;;;;;18.40;11.80;;;;;;;7.10;57.86;97886.38;8319581;28;20231;-70
2021/12/11 12:56:52;;;;;;;14.07;11.27;;;;;;;7.23;56.96;97890.25;8319154;28;20275;-70
2021/12/11 13:01:01;;;;;;;16.43;11.57;;;;;;;7.18;57.57;97897.28;8318811;28;20237;-70
2021/12/11 13:05:08;;;;;;;14.63;11.90;;;;;;;6.80;58.71;97914.75;8318858;28;20237;-70
2021/12/11 13:09:31;;;;;;;17.67;11.47;;;;;;;7.02;58.12;97921.81;8308283;28;20228;-69
2021/12/11 13:13:35;;;;;;;16.33;14.17;;;;;;;7.29;58.16;97917.53;8317479;28;20415;-70
2021/12/11 13:17:42;;;;;;;14.90;12.40;;;;;;;7.06;57.91;97925.97;8314450;28;20229;-70
2021/12/11 13:21:47;;;;;;;16.07;11.17;;;;;;;7.60;67.14;97927.69;8317638;28;20225;-71
2021/12/11 13:25:53;;;;;;;13.20;6.83;;;;;;;9.39;78.72;97937.56;8315451;28;20246;-69
2021/12/11 13:29:59;;;;;;;16.03;13.30;;;;;;;9.53;55.47;97943.91;8318051;28;20232;-72
2021/12/11 13:34:05;;;;;;;16.30;13.37;;;;;;;8.50;56.17;97956.44;8317754;28;20523;-72
2021/12/11 13:38:09;;;;;;;15.73;12.07;;;;;;;7.87;56.75;97950.03;8317391;28;20558;-72
2021/12/11 13:42:19;;;;;;;16.13;14.43;;;;;;;7.58;56.95;97960.41;8317746;28;20240;-73
2021/12/11 13:46:23;;;;;;;15.43;12.80;;;;;;;7.48;56.87;97971.03;8317088;28;20233;-71
2021/12/11 13:50:36;;;;;;;16.47;13.27;;;;;;;7.40;58.02;97981.59;8318281;28;20622;-73
2021/12/11 13:54:39;;;;;;;20.20;15.80;;;;;;;7.37;57.84;97992.84;8320563;28;20239;-73
2021/12/11 13:58:42;;;;;;;26.73;20.60;;;;;;;7.19;58.02;97995.97;8308612;28;20506;-72
2021/12/11 14:02:45;;;;;;;17.10;15.03;;;;;;;7.29;58.22;97996.53;8317357;28;20412;-74
2021/12/11 14:06:59;;;;;;;17.07;13.70;;;;;;;6.99;58.28;98004.31;8316091;28;20248;-73
2021/12/11 14:11:03;;;;;;;22.80;17.90;;;;;;;6.92;58.57;98018.25;8314794;28;20225;-72
2021/12/11 14:15:07;;;;;;;27.03;19.43;;;;;;;6.57;58.97;98020.09;8317019;28;20524;-74
2021/12/11 14:19:12;;;;;;;16.50;14.60;;;;;;;6.80;58.92;98032.31;8317481;28;20232;-72
2021/12/11 14:23:19;;;;;;;18.27;14.60;;;;;;;7.05;58.54;98041.00;8317371;28;20240;-72
2021/12/11 14:27:23;;;;;;;18.63;14.47;;;;;;;7.01;58.34;98047.13;8317294;28;20241;-73
2021/12/11 14:31:27;;;;;;;18.93;11.47;;;;;;;7.23;57.81;98046.50;8316908;28;20233;-74
2021/12/11 14:35:33;;;;;;;18.27;13.53;;;;;;;7.18;58.25;98054.38;8316469;28;20246;-73
2021/12/11 14:39:38;;;;;;;14.00;12.43;;;;;;;7.24;57.33;98063.66;8316141;28;20236;-73
2021/12/11 14:43:42;;;;;;;16.53;12.83;;;;;;;6.99;57.52;98064.38;8316221;28;20240;-73
2021/12/11 14:47:46;;;;;;;15.03;12.93;;;;;;;6.92;57.53;98078.28;8316317;28;20239;-74
2021/12/11 14:51:50;;;;;;;15.47;13.50;;;;;;;6.91;57.43;98080.91;8315564;28;20412;-75
2021/12/11 14:55:58;;;;;;;15.00;13.40;;;;;;;7.07;57.43;98089.91;8314434;28;20233;-74
2021/12/11 15:00:02;;;;;;;18.90;15.67;;;;;;;6.90;57.50;98085.22;8315433;28;20236;-73
2021/12/11 15:04:07;;;;;;;16.50;14.80;;;;;;;6.93;57.64;98100.59;8315405;28;20459;-71
2021/12/11 15:08:13;;;;;;;16.97;15.27;;;;;;;6.96;57.48;98115.09;8313378;28;20560;-73
2021/12/11 15:12:20;;;;;;;17.03;15.33;;;;;;;7.05;56.52;98118.25;8315147;28;20229;-74
2021/12/11 15:16:24;;;;;;;19.20;17.30;;;;;;;6.99;56.93;98125.31;8314995;28;20304;-74
2021/12/11 15:20:30;;;;;;;18.57;16.60;;;;;;;7.04;56.96;98128.59;8312614;28;20236;-73
2021/12/11 15:24:35;;;;;;;18.07;16.10;;;;;;;7.10;56.79;98133.59;8315981;28;20231;-72
2021/12/11 15:28:40;;;;;;;18.60;16.33;;;;;;;6.98;57.16;98141.66;8348296;28;20236;-72
2021/12/11 15:32:43;;;;;;;17.30;15.57;;;;;;;6.97;57.03;98142.56;8344473;28;20422;-75
2021/12/11 15:36:47;;;;;;;19.90;17.80;;;;;;;6.91;56.99;98146.13;8315243;28;20245;-73
2021/12/11 15:40:50;;;;;;;18.97;16.33;;;;;;;7.03;56.69;98150.09;8315112;28;20244;-74
2021/12/11 15:44:58;;;;;;;18.33;16.33;;;;;;;6.88;56.66;98159.06;8334332;28;20235;-74
2021/12/11 15:49:02;;;;;;;17.30;15.60;;;;;;;6.90;56.76;98169.34;8347614;28;20236;-73
2021/12/11 15:53:06;;;;;;;16.80;15.00;;;;;;;6.88;56.75;98171.94;8327710;28;20412;-73
2021/12/11 15:57:10;;;;;;;16.90;15.03;;;;;;;6.80;56.67;98172.16;8314786;28;20241;-77
2021/12/11 16:01:18;;;;;;;18.07;15.77;;;;;;;6.85;56.41;98169.44;8313747;28;20246;-71
2021/12/11 16:05:31;;;;;;;20.93;15.70;;;;;;;6.85;56.21;98180.59;8304289;28;20224;-71
2021/12/11 16:09:36;;;;;;;17.87;15.93;;;;;;;6.74;56.39;98179.16;8318932;28;20233;-70
2021/12/11 16:13:39;;;;;;;15.27;13.77;;;;;;;6.65;55.62;98190.56;8320885;28;20240;-71
2021/12/11 16:17:45;;;;;;;15.27;13.10;;;;;;;6.67;55.09;98204.22;8317397;28;20233;-76
2021/12/11 16:21:48;;;;;;;13.40;11.97;;;;;;;6.63;55.34;98213.75;8317582;28;20251;-73
2021/12/11 16:25:52;;;;;;;13.73;11.93;;;;;;;6.66;55.07;98217.97;8319523;28;20233;-73
2021/12/11 16:29:55;;;;;;;11.90;10.70;;;;;;;6.71;54.87;98233.31;8317957;28;20432;-71
2021/12/11 16:33:59;;;;;;;13.07;11.70;;;;;;;6.64;54.87;98246.34;8319808;28;20229;-70
2021/12/11 16:38:17;;;;;;;12.63;10.83;;;;;;;6.73;54.31;98240.09;8324217;28;20240;-72
2021/12/11 16:42:42;;;;;;;15.20;12.13;;;;;;;6.77;53.71;98248.59;8301630;28;20236;-71
2021/12/11 16:46:51;;;;;;;14.13;12.73;;;;;;;6.66;54.41;98261.72;8297226;28;20229;-73
2021/12/11 16:50:54;;;;;;;13.23;11.83;;;;;;;6.75;55.15;98260.66;8317015;28;20229;-71
2021/12/11 16:54:59;;;;;;;13.13;11.83;;;;;;;6.63;54.34;98262.66;8342833;28;20228;-78
2021/12/11 16:59:04;;;;;;;12.73;11.17;;;;;;;6.70;54.54;98268.50;8347725;28;20442;-71
2021/12/11 17:03:07;;;;;;;12.80;11.33;;;;;;;6.79;53.49;98278.56;8333232;28;20236;-71
2021/12/11 17:07:11;;;;;;;12.50;11.20;;;;;;;6.68;53.71;98279.72;8334992;28;20566;-71
2021/12/11 17:11:17;;;;;;;13.27;11.93;;;;;;;6.68;54.45;98290.00;8336501;28;20536;-75
2021/12/11 17:15:20;;;;;;;13.90;11.97;;;;;;;6.68;54.17;98287.44;8334906;28;20228;-78
2021/12/11 17:19:24;;;;;;;13.43;12.00;;;;;;;6.69;53.51;98284.81;8333290;28;20239;-74
2021/12/11 17:23:27;;;;;;;15.03;12.53;;;;;;;6.56;54.20;98291.13;8331610;28;20243;-73
2021/12/11 17:27:31;;;;;;;16.17;13.00;;;;;;;6.57;54.45;98303.13;8309601;28;20225;-72
2021/12/11 17:31:35;;;;;;;14.87;12.40;;;;;;;6.72;54.13;98301.91;8301595;28;20232;-72
2021/12/11 17:35:39;;;;;;;14.20;12.73;;;;;;;6.73;53.67;98308.78;8301752;28;20539;-71
2021/12/11 17:39:42;;;;;;;17.43;15.40;;;;;;;6.66;54.09;98313.19;8309709;28;20542;-71
2021/12/11 17:43:47;;;;;;;21.70;17.00;;;;;;;6.56;55.17;98304.00;8317632;28;20228;-70
2021/12/11 17:47:51;;;;;;;20.80;17.70;;;;;;;6.60;54.60;98311.59;8315551;28;20232;-71
2021/12/11 17:51:54;;;;;;;24.13;18.53;;;;;;;6.57;54.66;98316.00;8317485;28;20415;-71
2021/12/11 17:55:57;;;;;;;19.97;17.90;;;;;;;6.73;54.54;98329.34;8317402;28;20558;-71
2021/12/11 18:00:04;;;;;;;19.90;17.97;;;;;;;6.66;54.68;98320.91;8312370;28;20229;-72
2021/12/11 18:04:10;;;;;;;22.07;18.70;;;;;;;6.64;55.20;98320.09;8314116;28;20543;-70
2021/12/11 18:08:17;;;;;;;22.73;18.73;;;;;;;6.71;55.12;98326.81;8317006;28;20229;-71
2021/12/11 18:12:26;;;;;;;26.83;21.00;;;;;;;6.63;55.30;98323.56;8314169;28;20429;-70
2021/12/11 18:16:32;;;;;;;26.47;21.73;;;;;;;6.67;55.42;98329.50;8316084;28;20302;-70
2021/12/11 18:20:39;;;;;;;25.37;22.67;;;;;;;6.65;55.46;98340.66;8314062;28;20257;-69
2021/12/11 18:24:59;;;;;;;22.63;20.23;;;;;;;6.56;55.73;98345.19;8316403;28;20651;-70
2021/12/11 18:29:07;;;;;;;24.30;20.50;;;;;;;6.68;55.30;98351.78;8314819;28;20235;-70
2021/12/11 18:33:11;;;;;;;29.70;23.87;;;;;;;6.60;55.44;98357.09;8316386;28;20225;-72
2021/12/11 18:37:19;;;;;;;27.10;21.63;;;;;;;6.61;55.66;98359.63;8313820;28;20236;-71
2021/12/11 18:41:24;;;;;;;22.03;19.50;;;;;;;6.49;55.45;98361.63;8331238;28;20231;-70
2021/12/11 18:45:31;;;;;;;21.67;17.90;;;;;;;6.49;55.02;98362.47;8334171;28;20229;-71
2021/12/11 18:49:36;;;;;;;20.67;18.43;;;;;;;6.61;55.48;98369.09;8348729;28;20228;-71
2021/12/11 18:53:45;;;;;;;20.63;18.33;;;;;;;6.57;55.20;98370.03;8348986;28;20232;-70
2021/12/11 18:57:55;;;;;;;19.97;17.80;;;;;;;6.58;55.42;98376.88;8348933;28;20239;-70
2021/12/11 19:02:01;;;;;;;20.87;17.73;;;;;;;6.57;55.50;98376.03;8348754;28;20262;-70
2021/12/11 19:06:09;;;;;;;21.33;19.03;;;;;;;6.25;55.25;98385.25;8348647;28;20395;-70
2021/12/11 19:10:13;;;;;;;20.93;18.67;;;;;;;6.47;55.21;98389.94;8348399;28;20242;-70